Time;durP1;ratioP1;P1;durP2;ratioP2;P2;SDS_P1;SDS_P2;PMS_P1;PMS_P2;Temp;Humidity;BMP_temperature;BMP_pressure;BME280_temperature;BME280_humidity;BME280_pressure;Samples;Min_cycle;Max_cycle;Signal;HPM_P1;HPM_P2
2023/01/18 00:02:05;;;;;;;7.10;5.93;;;1.10;99.90;2.40;93826.00;;;;5066701;28;20434;-66
2023/01/18 00:04:53;;;;;;;5.87;5.27;;;1.10;99.90;2.40;93822.00;;;;5084182;28;20999;-66
2023/01/18 00:07:42;;;;;;;8.47;5.30;;;1.10;99.90;2.40;93814.00;;;;5064925;28;20454;-66
2023/01/18 00:10:31;;;;;;;8.17;5.33;;;1.30;99.90;2.40;93812.00;;;;5064452;28;20460;-66
2023/01/18 00:13:19;;;;;;;6.13;4.77;;;1.20;99.90;2.40;93809.00;;;;5060780;28;20975;-66
2023/01/18 00:16:12;;;;;;;7.60;4.57;;;1.10;99.90;2.40;93804.00;;;;5049990;28;20428;-66
2023/01/18 00:19:02;;;;;;;5.13;4.43;;;1.20;99.90;2.30;93812.00;;;;5050027;28;20434;-66
2023/01/18 00:21:53;;;;;;;7.37;5.73;;;1.20;99.90;2.10;93802.00;;;;5050276;28;20481;-66
2023/01/18 00:24:41;;;;;;;7.93;5.73;;;1.20;99.90;2.10;93809.00;;;;5049496;28;20989;-66
2023/01/18 00:27:30;;;;;;;6.37;4.87;;;1.10;99.90;2.30;93797.00;;;;5049658;28;20955;-66
2023/01/18 00:30:21;;;;;;;8.00;5.33;;;1.20;99.90;2.40;93781.00;;;;5062525;28;20501;-65
2023/01/18 00:33:10;;;;;;;5.93;4.40;;;1.20;99.90;2.40;93772.00;;;;5060749;28;20532;-66
2023/01/18 00:36:04;;;;;;;4.60;4.13;;;1.10;99.90;2.40;93764.00;;;;5059650;28;20430;-65
2023/01/18 00:38:53;;;;;;;5.97;3.90;;;1.20;99.90;2.40;93762.00;;;;5067573;28;20422;-66
2023/01/18 00:43:37;;;;;;;7.43;5.27;;;1.20;99.90;2.30;93754.00;;;;5050537;28;20419;-66
2023/01/18 00:44:50;;;;;;;7.07;4.93;;;1.20;99.90;2.40;93757.00;;;;5049527;28;20487;-65
2023/01/18 00:47:38;;;;;;;6.20;4.50;;;1.20;99.90;2.40;93777.00;;;;5048249;28;20490;-66
2023/01/18 00:50:27;;;;;;;7.67;5.20;;;1.30;99.90;2.50;93779.00;;;;5081757;28;20425;-66
2023/01/18 00:53:17;;;;;;;5.87;4.73;;;1.10;99.90;2.40;93768.00;;;;5060204;28;20448;-66
2023/01/18 00:56:07;;;;;;;7.10;5.20;;;1.20;99.90;2.40;93768.00;;;;5050088;28;20431;-66
2023/01/18 00:58:56;;;;;;;5.37;4.20;;;1.20;99.90;2.30;93780.00;;;;5050101;28;20476;-66
2023/01/18 01:01:45;;;;;;;5.80;5.07;;;1.30;99.90;2.00;93807.00;;;;5073683;28;20429;-66
2023/01/18 01:07:40;;;;;;;5.87;4.90;;;1.10;99.90;2.10;93830.00;;;;5048642;28;20431;-66
2023/01/18 01:10:30;;;;;;;7.33;5.53;;;1.10;99.90;2.10;93840.00;;;;5060829;28;20929;-66
2023/01/18 01:28:53;;;;;;;7.57;5.67;;;1.20;99.90;2.50;93901.00;;;;5049178;28;20867;-66
2023/01/18 01:31:42;;;;;;;7.53;5.73;;;1.20;99.90;2.30;93906.00;;;;5049455;28;20451;-65
2023/01/18 01:34:31;;;;;;;6.13;5.53;;;1.10;99.90;2.50;93934.00;;;;5057363;28;20488;-66
2023/01/18 01:37:20;;;;;;;5.20;4.63;;;1.20;99.90;2.50;93919.00;;;;5048726;28;20419;-66
2023/01/18 01:40:11;;;;;;;5.70;5.17;;;1.20;99.90;2.50;93925.00;;;;5063264;28;20493;-65
2023/01/18 01:43:01;;;;;;;5.10;4.60;;;1.20;99.90;2.20;93929.00;;;;5048550;28;20465;-66
2023/01/18 01:45:51;;;;;;;7.03;5.23;;;1.20;99.90;2.10;93915.00;;;;5050543;28;20898;-66
2023/01/18 01:48:40;;;;;;;6.23;5.27;;;1.20;99.90;2.30;93931.00;;;;5052626;28;20419;-66
2023/01/18 01:51:29;;;;;;;5.03;4.27;;;1.20;99.90;2.40;93922.00;;;;5052563;28;20457;-66
2023/01/18 01:54:24;;;;;;;5.93;4.77;;;1.40;99.90;2.50;93922.00;;;;5053405;28;20471;-66
2023/01/18 01:57:18;;;;;;;4.70;3.97;;;1.20;99.90;2.60;93909.00;;;;5052880;28;20549;-66
2023/01/18 02:00:12;;;;;;;4.53;4.13;;;1.20;99.90;2.40;93906.00;;;;5053458;28;20427;-66
2023/01/18 02:03:04;;;;;;;4.40;4.00;;;1.30;99.90;2.50;93900.00;;;;5066295;28;20521;-65
2023/01/18 02:06:00;;;;;;;4.13;3.67;;;1.30;99.90;2.60;93883.00;;;;5074918;28;20457;-66
2023/01/18 02:08:49;;;;;;;6.47;4.03;;;1.40;99.90;2.60;93890.00;;;;5067284;28;20456;-66
2023/01/18 02:11:38;;;;;;;4.83;3.77;;;1.30;99.90;2.60;93891.00;;;;5082570;28;20409;-66
2023/01/18 02:14:27;;;;;;;4.60;3.80;;;1.30;99.90;2.60;93891.00;;;;5072249;28;20528;-66
2023/01/18 02:17:34;;;;;;;6.47;3.63;;;1.30;99.90;2.50;93891.00;;;;5051987;28;20422;-66
2023/01/18 02:21:18;;;;;;;3.43;2.80;;;1.50;99.90;2.50;93891.00;;;;5051926;28;20510;-66
2023/01/18 02:24:44;;;;;;;2.57;2.37;;;1.30;99.90;2.60;93904.00;;;;5052932;28;20447;-66
2023/01/18 02:27:42;;;;;;;2.40;2.20;;;1.30;99.90;2.70;93911.00;;;;5060221;28;20437;-66
2023/01/18 02:30:36;;;;;;;3.20;2.87;;;1.30;99.90;2.50;93892.00;;;;5053205;28;20453;-66
2023/01/18 02:33:33;;;;;;;4.67;4.07;;;1.30;99.90;2.50;93881.00;;;;5051256;28;20450;-66
2023/01/18 02:36:31;;;;;;;5.13;3.57;;;1.40;99.90;2.50;93863.00;;;;5052155;28;20492;-66
2023/01/18 02:39:37;;;;;;;4.20;3.10;;;1.30;99.90;2.60;93858.00;;;;5076230;28;20451;-66
2023/01/18 02:48:49;;;;;;;3.40;3.03;;;1.30;99.90;2.30;93851.00;;;;5051665;28;20451;-66
2023/01/18 02:51:38;;;;;;;6.93;3.20;;;1.30;99.90;2.20;93854.00;;;;5051949;28;20505;-66
2023/01/18 02:54:28;;;;;;;4.90;4.03;;;1.30;99.90;2.40;93861.00;;;;5051970;28;20459;-66
2023/01/18 02:57:18;;;;;;;3.57;3.27;;;1.30;99.90;2.40;93873.00;;;;5049903;28;20950;-66
2023/01/18 03:00:10;;;;;;;4.10;3.30;;;1.20;99.90;2.30;93879.00;;;;5051594;28;20419;-66
2023/01/18 03:03:01;;;;;;;3.93;2.73;;;1.30;99.90;2.40;93893.00;;;;5051753;28;20459;-66
2023/01/18 03:05:52;;;;;;;3.77;3.23;;;1.30;99.90;2.50;93893.00;;;;5051808;28;20459;-66
2023/01/18 03:08:46;;;;;;;6.30;4.20;;;1.20;99.90;2.50;93884.00;;;;5070848;28;20923;-66
2023/01/18 03:11:45;;;;;;;3.40;3.10;;;1.20;99.90;2.50;93882.00;;;;5070091;28;20418;-66
2023/01/18 03:14:42;;;;;;;6.47;3.80;;;1.30;99.90;2.60;93883.00;;;;5051370;28;20944;-65
2023/01/18 03:17:38;;;;;;;6.27;4.90;;;1.40;99.90;2.60;93884.00;;;;5050913;28;20419;-65
2023/01/18 03:20:33;;;;;;;6.67;4.90;;;1.30;99.90;2.60;93877.00;;;;5051492;28;20512;-65
2023/01/18 03:23:41;;;;;;;6.97;4.57;;;1.30;99.90;2.50;93869.00;;;;5051231;28;20442;-65
2023/01/18 03:26:34;;;;;;;5.10;4.47;;;1.30;99.90;2.50;93870.00;;;;5051186;28;21233;-66
2023/01/18 03:35:42;;;;;;;3.80;3.40;;;1.30;99.90;1.70;93866.00;;;;5059115;28;21272;-66
2023/01/18 03:38:32;;;;;;;4.90;4.40;;;1.20;99.90;1.60;93883.00;;;;5056128;28;20426;-64
2023/01/18 03:41:25;;;;;;;5.30;4.23;;;1.10;99.90;1.80;93892.00;;;;5055232;28;20450;-64
2023/01/18 03:44:21;;;;;;;5.57;4.43;;;1.10;99.90;2.10;93891.00;;;;5051475;28;20458;-64
2023/01/18 03:47:10;;;;;;;5.83;4.40;;;1.10;99.90;2.20;93891.00;;;;5051409;28;20486;-64
2023/01/18 03:49:59;;;;;;;5.53;4.93;;;1.10;99.90;2.30;93893.00;;;;5050483;28;20433;-63
2023/01/18 03:52:55;;;;;;;5.17;4.40;;;1.10;99.90;2.40;93885.00;;;;5050591;28;20944;-64
2023/01/18 03:55:50;;;;;;;5.97;4.50;;;1.20;99.90;2.10;93888.00;;;;5050717;28;20427;-63
2023/01/18 03:58:41;;;;;;;4.97;4.23;;;1.10;99.90;2.30;93879.00;;;;5049595;28;20424;-64
2023/01/18 04:01:29;;;;;;;6.03;5.17;;;1.10;99.90;2.30;93896.00;;;;5050424;28;20434;-64
2023/01/18 04:04:18;;;;;;;5.87;4.17;;;1.10;99.90;2.20;93894.00;;;;5050469;28;20439;-64
2023/01/18 04:07:07;;;;;;;4.47;3.93;;;0.90;99.90;2.10;93894.00;;;;5049649;28;20894;-64
2023/01/18 04:09:57;;;;;;;6.00;3.87;;;1.10;99.90;1.70;93903.00;;;;5068530;28;20479;-64
2023/01/18 04:12:46;;;;;;;5.97;5.37;;;1.00;99.90;1.70;93908.00;;;;5070436;28;21258;-64
2023/01/18 04:15:34;;;;;;;2.30;2.10;;;1.00;99.90;1.60;93909.00;;;;5068285;28;20427;-65
2023/01/18 04:18:23;;;;;;;4.50;4.10;;;1.00;99.90;1.90;93910.00;;;;5069271;28;20480;-65
2023/01/18 04:21:12;;;;;;;4.53;3.93;;;0.90;99.90;2.00;93915.00;;;;5050262;28;20514;-65
2023/01/18 04:24:00;;;;;;;5.57;4.13;;;0.90;99.90;2.10;93908.00;;;;5062136;28;20445;-65
2023/01/18 04:26:51;;;;;;;4.07;3.63;;;0.90;99.90;2.20;93925.00;;;;5070773;28;21181;-65
2023/01/18 04:29:39;;;;;;;4.00;3.60;;;1.00;99.90;2.30;93948.00;;;;5050076;28;20489;-65
2023/01/18 04:32:28;;;;;;;4.20;3.80;;;1.00;99.90;2.20;93944.00;;;;5054855;28;20431;-64
2023/01/18 04:35:17;;;;;;;4.73;4.00;;;1.10;99.90;2.30;93946.00;;;;5066975;28;20976;-65
2023/01/18 04:38:05;;;;;;;6.17;4.67;;;1.10;99.90;2.40;93944.00;;;;5070709;28;20481;-65
2023/01/18 04:40:54;;;;;;;5.77;4.40;;;1.00;99.90;2.40;93941.00;;;;5064077;28;20424;-64
2023/01/18 04:43:44;;;;;;;5.10;4.33;;;1.10;99.90;2.40;93924.00;;;;5055684;28;20492;-65
2023/01/18 04:46:33;;;;;;;4.27;3.83;;;1.10;99.90;2.30;93916.00;;;;5050451;28;20989;-65
2023/01/18 04:49:22;;;;;;;4.47;4.07;;;1.10;99.90;2.20;93904.00;;;;5063641;28;20963;-65
2023/01/18 04:52:11;;;;;;;4.63;3.63;;;1.10;99.90;2.20;93920.00;;;;5065637;28;20422;-65
2023/01/18 04:55:00;;;;;;;5.17;4.17;;;1.10;99.90;2.20;93927.00;;;;5049774;28;20438;-65
2023/01/18 04:57:55;;;;;;;4.40;4.00;;;1.20;99.90;1.90;93933.00;;;;5049006;28;20473;-65
2023/01/18 05:00:45;;;;;;;7.83;3.93;;;1.00;99.90;2.20;93925.00;;;;5052574;28;20433;-65
2023/01/18 05:03:36;;;;;;;4.97;3.97;;;1.00;99.90;2.20;93941.00;;;;5067132;28;21315;-65
2023/01/18 05:06:26;;;;;;;6.03;4.70;;;0.60;99.90;1.90;93954.00;;;;5061543;28;20451;-65
2023/01/18 05:09:15;;;;;;;8.30;6.00;;;1.00;99.90;2.00;93968.00;;;;5058173;28;20442;-65
2023/01/18 05:12:04;;;;;;;8.97;6.63;;;1.10;99.90;2.20;93962.00;;;;5070871;28;20949;-65
2023/01/18 05:14:52;;;;;;;7.30;5.30;;;1.10;99.90;2.40;93977.00;;;;5058448;28;20450;-65
2023/01/18 05:17:42;;;;;;;8.00;5.97;;;1.10;99.90;2.40;93980.00;;;;5079584;28;20411;-65
2023/01/18 05:20:31;;;;;;;10.20;5.97;;;1.10;99.90;2.40;93996.00;;;;5073139;28;20832;-65
2023/01/18 05:23:20;;;;;;;5.10;4.57;;;1.20;99.90;2.40;93991.00;;;;5058802;28;20443;-65
2023/01/18 05:26:16;;;;;;;4.80;4.30;;;1.20;99.90;2.30;94000.00;;;;5071428;28;20511;-65
2023/01/18 05:29:05;;;;;;;5.73;5.17;;;1.20;99.90;2.20;94005.00;;;;5065201;28;20454;-65
2023/01/18 05:31:54;;;;;;;5.90;5.20;;;1.20;99.90;2.10;94010.00;;;;5059676;28;20817;-65
2023/01/18 05:34:44;;;;;;;8.47;6.67;;;1.10;99.90;2.10;94021.00;;;;5048386;28;20443;-65
2023/01/18 05:37:33;;;;;;;6.80;6.10;;;1.10;99.90;2.30;94021.00;;;;5048935;28;20505;-65
2023/01/18 05:40:21;;;;;;;6.87;5.17;;;1.20;99.90;2.30;94036.00;;;;5062570;28;20427;-65
2023/01/18 05:43:10;;;;;;;9.57;7.37;;;1.20;99.90;2.20;94036.00;;;;5057480;28;20878;-65
2023/01/18 05:45:59;;;;;;;10.43;7.30;;;1.20;99.90;1.90;94034.00;;;;5056797;28;20929;-65
2023/01/18 05:48:48;;;;;;;5.97;5.17;;;1.10;99.90;1.90;94047.00;;;;5048595;28;20805;-64
2023/01/18 05:51:38;;;;;;;7.07;6.43;;;1.10;99.90;2.30;94048.00;;;;5048917;28;20792;-65
2023/01/18 05:54:26;;;;;;;9.87;6.67;;;1.10;99.90;2.40;94036.00;;;;5048597;28;20443;-64
2023/01/18 05:57:15;;;;;;;6.53;4.90;;;1.20;99.90;2.40;94037.00;;;;5053561;28;20481;-64
2023/01/18 06:00:06;;;;;;;5.67;5.13;;;1.20;99.90;2.40;94035.00;;;;5064463;28;21254;-65
2023/01/18 06:02:54;;;;;;;5.57;3.97;;;1.20;99.90;2.20;94039.00;;;;5057263;28;20931;-64
2023/01/18 06:05:44;;;;;;;6.70;4.90;;;1.20;99.90;2.10;94044.00;;;;5074293;28;20434;-65
2023/01/18 06:08:34;;;;;;;5.63;4.20;;;1.10;99.90;1.90;94038.00;;;;5073337;28;20422;-65
2023/01/18 06:11:23;;;;;;;5.47;4.73;;;1.10;99.90;2.00;94057.00;;;;5070490;28;20455;-64
2023/01/18 06:14:11;;;;;;;5.17;4.60;;;1.10;99.90;2.00;94060.00;;;;5068700;28;20459;-65
2023/01/18 06:17:00;;;;;;;68.33;33.97;;;1.10;99.90;2.10;94065.00;;;;5049000;28;21020;-65
2023/01/18 06:19:49;;;;;;;39.60;25.93;;;1.10;99.90;2.20;94061.00;;;;5061983;28;20476;-65
2023/01/18 06:22:37;;;;;;;14.93;9.57;;;1.10;99.90;2.20;94064.00;;;;5063490;28;21004;-65
2023/01/18 06:25:27;;;;;;;19.87;13.10;;;1.10;99.90;2.30;94079.00;;;;5059399;28;20442;-65
2023/01/18 06:28:18;;;;;;;9.47;7.33;;;1.10;99.90;2.30;94075.00;;;;5061172;28;20503;-65
2023/01/18 06:31:07;;;;;;;14.77;11.17;;;1.20;99.90;2.00;94078.00;;;;5068720;28;21022;-65
2023/01/18 06:33:56;;;;;;;20.40;12.73;;;1.10;99.90;2.20;94087.00;;;;5076435;28;20519;-65
2023/01/18 06:36:44;;;;;;;24.00;10.80;;;1.10;99.90;2.30;94082.00;;;;5064036;28;21193;-65
2023/01/18 06:39:34;;;;;;;4.33;3.90;;;1.10;99.90;1.90;94088.00;;;;5067512;28;20422;-64
2023/01/18 06:42:24;;;;;;;6.87;4.73;;;1.00;99.90;1.60;94091.00;;;;5059367;28;20466;-65
2023/01/18 06:45:12;;;;;;;8.10;5.57;;;1.00;99.90;2.00;94088.00;;;;5051699;28;20427;-65
2023/01/18 06:48:01;;;;;;;11.50;6.00;;;1.00;99.90;2.20;94103.00;;;;5065981;28;21046;-65
2023/01/18 06:50:51;;;;;;;9.33;6.73;;;1.00;99.90;2.30;94109.00;;;;5062560;28;20443;-64
2023/01/18 06:53:39;;;;;;;7.13;4.63;;;1.10;99.90;2.40;94116.00;;;;5066169;28;20457;-64
2023/01/18 06:56:28;;;;;;;8.57;5.63;;;1.10;99.90;2.40;94130.00;;;;5065556;28;20472;-65
2023/01/18 06:59:18;;;;;;;7.13;5.57;;;1.10;99.90;2.30;94116.00;;;;5056885;28;20426;-65
2023/01/18 07:02:09;;;;;;;6.20;4.87;;;1.20;99.90;2.30;94128.00;;;;5070814;28;20814;-65
2023/01/18 07:04:58;;;;;;;7.90;5.83;;;1.20;99.90;2.20;94128.00;;;;5056756;28;20439;-65
2023/01/18 07:07:46;;;;;;;5.43;4.90;;;1.20;99.90;1.90;94151.00;;;;5059427;28;20461;-64
2023/01/18 07:10:36;;;;;;;4.80;4.03;;;1.10;99.90;2.00;94145.00;;;;5073380;28;20423;-64
2023/01/18 07:13:25;;;;;;;5.17;4.67;;;1.10;99.90;2.30;94143.00;;;;5061165;28;20467;-64
2023/01/18 07:16:17;;;;;;;5.70;4.73;;;1.10;99.90;2.20;94144.00;;;;5052057;28;20439;-64
2023/01/18 07:19:06;;;;;;;9.03;5.10;;;1.20;99.90;2.10;94145.00;;;;5062460;28;20449;-65
2023/01/18 07:21:55;;;;;;;6.13;4.20;;;1.30;99.90;2.30;94162.00;;;;5074124;28;20433;-64
2023/01/18 07:24:44;;;;;;;6.60;5.30;;;1.10;99.90;2.50;94183.00;;;;5051427;28;20440;-65
2023/01/18 07:27:33;;;;;;;5.23;4.37;;;1.30;99.90;2.30;94187.00;;;;5070065;28;20470;-65
2023/01/18 07:30:21;;;;;;;7.70;6.03;;;1.20;99.90;2.70;94196.00;;;;5077378;28;20489;-65
2023/01/18 07:33:12;;;;;;;11.07;6.47;;;1.30;99.90;2.40;94199.00;;;;5049632;28;20455;-65
2023/01/18 07:36:03;;;;;;;12.13;8.40;;;1.30;99.90;2.90;94194.00;;;;5051224;28;20426;-65
2023/01/18 07:38:52;;;;;;;9.70;7.77;;;1.50;99.90;3.30;94196.00;;;;5050678;28;20427;-65
2023/01/18 07:41:41;;;;;;;10.00;7.47;;;1.60;99.90;3.40;94202.00;;;;5050906;28;20427;-64
2023/01/18 07:44:30;;;;;;;8.70;6.57;;;1.80;99.90;3.50;94210.00;;;;5050317;28;20448;-64
2023/01/18 07:47:18;;;;;;;10.27;6.50;;;2.00;99.90;3.70;94199.00;;;;5050905;28;20459;-65
2023/01/18 07:50:11;;;;;;;10.97;6.60;;;2.10;99.90;4.00;94195.00;;;;5050926;28;20477;-64
2023/01/18 07:53:03;;;;;;;30.87;13.83;;;2.30;99.90;3.80;94200.00;;;;5049978;28;20459;-65
2023/01/18 07:55:52;;;;;;;14.50;7.10;;;2.40;99.90;3.70;94204.00;;;;5051527;28;20423;-65
2023/01/18 07:58:40;;;;;;;12.17;5.77;;;2.40;99.90;3.40;94214.00;;;;5050373;28;20205;-65
2023/01/18 08:01:29;;;;;;;6.47;4.70;;;2.40;99.90;2.90;94208.00;;;;5050376;28;20193;-63
2023/01/18 08:04:18;;;;;;;7.87;4.70;;;2.30;99.90;3.00;94219.00;;;;5051096;28;20231;-66
2023/01/18 08:07:08;;;;;;;15.07;5.73;;;2.10;99.90;3.10;94209.00;;;;5050158;28;20262;-66
2023/01/18 08:09:57;;;;;;;7.97;5.80;;;2.10;99.90;3.10;94220.00;;;;5063514;28;20779;-66
2023/01/18 08:12:46;;;;;;;6.47;4.57;;;2.10;99.90;3.40;94214.00;;;;5061158;28;20427;-66
2023/01/18 08:15:35;;;;;;;5.83;4.23;;;2.10;99.90;3.40;94217.00;;;;5050968;28;20507;-66
2023/01/18 08:18:24;;;;;;;6.23;4.23;;;2.20;99.90;3.00;94231.00;;;;5049889;28;20431;-65
2023/01/18 08:21:13;;;;;;;9.27;4.83;;;2.10;99.90;3.00;94244.00;;;;5050354;28;20525;-66
2023/01/18 08:24:04;;;;;;;5.97;4.63;;;2.00;99.90;3.20;94252.00;;;;5069083;28;20442;-65
2023/01/18 08:26:53;;;;;;;9.67;5.70;;;2.10;99.90;3.40;94265.00;;;;5070128;28;20468;-66
2023/01/18 08:29:41;;;;;;;11.60;4.60;;;2.10;99.90;3.50;94268.00;;;;5069870;28;20422;-66
2023/01/18 08:32:30;;;;;;;7.90;4.77;;;2.40;99.90;3.60;94282.00;;;;5070482;28;20430;-65
2023/01/18 08:35:19;;;;;;;6.47;4.53;;;2.30;99.90;3.50;94278.00;;;;5056071;28;20423;-65
2023/01/18 08:38:09;;;;;;;5.87;4.30;;;2.20;99.90;3.40;94286.00;;;;5052677;28;20492;-67
2023/01/18 08:41:02;;;;;;;5.57;4.80;;;2.20;99.90;3.40;94288.00;;;;5057603;28;20992;-66
2023/01/18 08:43:51;;;;;;;6.00;3.97;;;2.20;99.90;3.30;94293.00;;;;5049681;28;20448;-67
2023/01/18 08:46:40;;;;;;;4.27;3.90;;;2.20;99.90;3.00;94310.00;;;;5049302;28;20498;-66
2023/01/18 08:49:28;;;;;;;5.07;4.57;;;2.10;99.90;3.30;94314.00;;;;5048148;28;21010;-64
2023/01/18 08:52:17;;;;;;;7.20;4.27;;;2.10;99.90;3.50;94319.00;;;;5049559;28;20961;-66
2023/01/18 08:55:08;;;;;;;4.90;3.53;;;2.10;99.90;3.50;94318.00;;;;5047352;28;20442;-66
2023/01/18 08:57:58;;;;;;;3.43;3.13;;;2.20;99.90;3.60;94312.00;;;;5048455;28;20493;-66
2023/01/18 09:00:49;;;;;;;4.03;3.40;;;2.20;99.90;3.40;94328.00;;;;5049549;28;20420;-66
2023/01/18 09:03:38;;;;;;;3.97;3.43;;;2.40;99.90;3.00;94337.00;;;;5048994;28;20501;-66
2023/01/18 09:06:30;;;;;;;5.93;3.67;;;2.10;99.90;3.20;94341.00;;;;5049754;28;20788;-66
2023/01/18 09:09:19;;;;;;;3.90;3.57;;;2.10;99.90;3.00;94364.00;;;;5058311;28;21005;-65
2023/01/18 09:12:08;;;;;;;9.80;5.37;;;2.20;99.90;2.60;94387.00;;;;5072241;28;20502;-66
2023/01/18 09:14:58;;;;;;;5.60;4.50;;;2.00;99.90;3.00;94388.00;;;;5079858;22;20500;-65
2023/01/18 09:17:47;;;;;;;4.33;3.93;;;2.00;99.90;3.10;94395.00;;;;5063877;28;20435;-65
2023/01/18 09:20:36;;;;;;;5.50;3.93;;;2.00;99.90;3.40;94405.00;;;;5086980;28;20523;-65
2023/01/18 09:23:25;;;;;;;6.03;3.73;;;2.10;99.90;3.50;94414.00;;;;5089011;28;20486;-65
2023/01/18 09:26:17;;;;;;;5.43;4.00;;;2.10;99.90;3.50;94428.00;;;;5069500;28;20422;-64
2023/01/18 09:29:05;;;;;;;4.80;3.57;;;2.10;99.90;3.60;94417.00;;;;5067496;28;20469;-64
2023/01/18 09:31:55;;;;;;;5.40;3.87;;;2.20;99.90;3.70;94422.00;;;;5069471;28;20418;-64
2023/01/18 09:34:48;;;;;;;3.40;2.67;;;2.20;99.90;3.70;94428.00;;;;5069647;28;20504;-64
2023/01/18 09:37:36;;;;;;;3.97;3.57;;;2.30;99.90;3.70;94432.00;;;;5069856;28;20430;-64
2023/01/18 09:40:42;;;;;;;3.87;3.50;;;2.30;99.90;3.70;94449.00;;;;5069301;28;20431;-65
2023/01/18 09:43:38;;;;;;;3.13;2.47;;;2.40;99.90;3.80;94457.00;;;;5068974;28;20203;-64
2023/01/18 09:46:27;;;;;;;3.90;3.03;;;2.30;99.90;3.50;94460.00;;;;5068493;28;20270;-65
2023/01/18 09:49:21;;;;;;;3.63;3.03;;;2.30;99.90;3.70;94461.00;;;;5067958;28;20670;-64
2023/01/18 09:52:35;;;;;;;3.50;3.23;;;2.30;99.90;3.80;94466.00;;;;5068749;28;20203;-65
2023/01/18 09:55:33;;;;;;;4.20;3.13;;;2.40;99.90;3.60;94467.00;;;;5069472;28;20223;-65
2023/01/18 09:58:58;;;;;;;4.83;3.97;;;2.40;99.90;3.80;94459.00;;;;5070078;28;20701;-65
2023/01/18 10:01:48;;;;;;;3.77;2.77;;;2.40;99.90;3.80;94466.00;;;;5026127;28;20215;-65
2023/01/18 10:04:42;;;;;;;3.67;3.30;;;2.40;99.90;3.50;94464.00;;;;5070126;28;20454;-64
2023/01/18 10:07:35;;;;;;;5.20;4.20;;;2.40;99.90;3.70;94454.00;;;;5070534;28;20234;-65
2023/01/18 10:10:24;;;;;;;4.73;4.33;;;2.40;99.90;3.80;94450.00;;;;5058845;28;20851;-65
2023/01/18 10:13:43;;;;;;;5.90;4.43;;;2.40;99.90;3.60;94448.00;;;;5072490;28;20204;-64
2023/01/18 10:16:34;;;;;;;6.30;4.77;;;2.50;99.90;3.30;94460.00;;;;5071885;28;20249;-64
2023/01/18 10:19:27;;;;;;;5.90;5.13;;;2.40;99.90;3.50;94459.00;;;;5071618;28;20426;-65
2023/01/18 10:22:23;;;;;;;5.83;5.23;;;2.40;99.90;3.50;94456.00;;;;5071878;28;20588;-65
2023/01/18 10:25:19;;;;;;;6.17;4.53;;;2.50;99.90;3.30;94472.00;;;;5071462;28;20333;-64
2023/01/18 10:28:32;;;;;;;4.00;3.63;;;2.40;99.90;3.20;94470.00;;;;5071241;28;20200;-63
2023/01/18 10:31:41;;;;;;;6.57;3.80;;;2.30;99.90;3.20;94477.00;;;;5071832;28;20434;-62
2023/01/18 10:34:33;;;;;;;10.90;5.40;;;2.30;99.90;3.10;94491.00;;;;5073300;28;20446;-63
2023/01/18 10:37:34;;;;;;;6.13;4.90;;;2.20;99.90;3.10;94501.00;;;;5071696;28;20503;-62
2023/01/18 10:40:23;;;;;;;5.40;4.57;;;2.20;99.90;3.20;94504.00;;;;5056587;28;20520;-63
2023/01/18 10:43:19;;;;;;;7.00;5.23;;;2.20;99.90;3.20;94512.00;;;;5071994;28;20423;-63
2023/01/18 10:46:13;;;;;;;8.33;4.60;;;2.20;99.90;3.30;94513.00;;;;5053038;28;20448;-64
2023/01/18 10:49:03;;;;;;;4.70;4.17;;;2.20;99.90;3.60;94510.00;;;;5070562;28;20733;-63
2023/01/18 10:51:51;;;;;;;5.17;4.47;;;2.30;99.90;4.10;94529.00;;;;5072504;28;20492;-64
2023/01/18 10:54:50;;;;;;;7.57;4.60;;;2.50;99.90;4.30;94540.00;;;;5071409;28;20442;-64
2023/01/18 10:57:46;;;;;;;4.57;4.10;;;2.60;99.90;4.50;94544.00;;;;5070974;28;20799;-64
2023/01/18 11:00:36;;;;;;;6.87;3.73;;;2.80;99.90;4.70;94537.00;;;;5072451;28;20203;-64
2023/01/18 11:03:27;;;;;;;6.03;4.27;;;2.90;99.90;4.80;94541.00;;;;5070313;28;20231;-63
2023/01/18 11:06:18;;;;;;;5.97;4.67;;;3.10;99.90;5.10;94546.00;;;;5071112;28;20204;-64
2023/01/18 11:09:38;;;;;;;7.20;4.40;;;3.30;99.90;5.50;94556.00;;;;5070285;28;20220;-63
2023/01/18 11:12:35;;;;;;;5.80;5.07;;;3.50;99.90;5.50;94550.00;;;;5058997;28;20203;-63
2023/01/18 11:15:30;;;;;;;8.23;5.57;;;3.80;99.90;5.50;94560.00;;;;5071816;28;20312;-64
2023/01/18 11:18:19;;;;;;;6.37;5.20;;;3.90;99.90;5.40;94568.00;;;;5068992;28;20199;-63
2023/01/18 11:21:11;;;;;;;9.77;4.93;;;3.90;99.90;5.50;94572.00;;;;5066772;28;20327;-63
2023/01/18 11:24:08;;;;;;;8.07;5.83;;;4.00;99.90;5.60;94576.00;;;;5071264;28;20203;-63
2023/01/18 11:27:00;;;;;;;5.20;4.70;;;4.00;99.90;5.70;94579.00;;;;5072979;28;20223;-64
2023/01/18 11:29:51;;;;;;;16.07;8.23;;;4.10;99.90;5.30;94576.00;;;;5068247;28;20228;-64
2023/01/18 11:32:40;;;;;;;9.57;4.70;;;4.10;99.90;5.10;94572.00;;;;5070348;28;20235;-63
2023/01/18 11:35:36;;;;;;;5.83;5.17;;;4.00;99.90;5.10;94569.00;;;;5070608;28;20216;-64
2023/01/18 11:38:30;;;;;;;5.23;4.73;;;4.00;99.90;5.20;94557.00;;;;5062643;28;20200;-63
2023/01/18 11:41:22;;;;;;;6.63;5.27;;;4.00;99.90;6.10;94541.00;;;;5058945;28;20208;-64
2023/01/18 11:44:19;;;;;;;6.30;4.80;;;4.20;99.90;6.60;94559.00;;;;5070097;28;20223;-64
2023/01/18 11:47:20;;;;;;;5.40;4.27;;;4.60;99.90;6.80;94558.00;;;;5066588;28;20204;-63
2023/01/18 11:50:27;;;;;;;6.07;4.87;;;5.10;99.90;6.40;94571.00;;;;5071357;28;20259;-64
2023/01/18 11:53:30;;;;;;;4.13;3.10;;;5.30;99.90;6.60;94583.00;;;;5071402;28;20208;-64
2023/01/18 11:56:30;;;;;;;3.90;3.50;;;5.30;99.90;6.10;94594.00;;;;5069777;28;20215;-63
2023/01/18 11:59:26;;;;;;;5.20;3.50;;;5.30;99.90;6.60;94601.00;;;;5067124;28;20408;-64
2023/01/18 12:02:54;;;;;;;7.23;3.43;;;5.20;99.90;6.80;94596.00;;;;5070102;28;20200;-64
2023/01/18 12:05:48;;;;;;;2.93;2.63;;;5.30;99.90;7.10;94588.00;;;;5067706;28;20220;-64
2023/01/18 12:09:10;;;;;;;3.37;2.27;;;5.30;99.90;6.80;94587.00;;;;5062210;28;20204;-64
2023/01/18 12:12:17;;;;;;;2.10;1.90;;;5.40;99.90;6.90;94589.00;;;;5061324;28;20620;-64
2023/01/18 12:15:29;;;;;;;3.10;1.83;;;5.40;99.90;6.90;94598.00;;;;5067040;28;20232;-64
2023/01/18 12:18:50;;;;;;;2.17;1.87;;;5.40;99.90;6.60;94604.00;;;;5060855;28;20196;-64
2023/01/18 12:21:51;;;;;;;1.23;1.13;;;5.40;99.90;6.30;94619.00;;;;5068893;28;20211;-64
2023/01/18 12:24:53;;;;;;;1.77;1.43;;;5.20;99.90;6.20;94624.00;;;;5069559;28;20274;-64
2023/01/18 12:27:52;;;;;;;1.63;1.17;;;5.10;99.90;6.50;94626.00;;;;5068804;28;20215;-63
2023/01/18 12:30:59;;;;;;;2.40;1.80;;;5.10;99.90;6.40;94613.00;;;;5069048;28;20216;-64
2023/01/18 12:34:00;;;;;;;2.07;1.33;;;5.20;99.90;6.50;94615.00;;;;5052698;28;20675;-64
2023/01/18 12:37:25;;;;;;;1.23;1.17;;;5.10;99.90;6.70;94617.00;;;;5060085;28;20358;-64
2023/01/18 12:40:32;;;;;;;1.80;1.30;;;5.10;99.90;6.90;94623.00;;;;5058408;28;20613;-64
2023/01/18 12:43:36;;;;;;;1.63;1.33;;;5.20;99.90;7.00;94619.00;;;;5052041;28;20200;-64
2023/01/18 12:46:31;;;;;;;1.33;1.23;;;5.30;99.90;7.00;94619.00;;;;5064638;28;20213;-64
2023/01/18 12:49:22;;;;;;;1.97;1.50;;;5.30;99.90;6.90;94603.00;;;;5058335;28;20192;-64
2023/01/18 12:52:15;;;;;;;2.97;2.77;;;5.40;99.90;7.40;94611.00;;;;5052991;28;20201;-64
2023/01/18 12:55:15;;;;;;;1.23;1.13;;;5.50;99.90;7.00;94597.00;;;;5056568;28;20675;-64
2023/01/18 12:58:04;;;;;;;1.73;1.50;;;5.60;99.90;7.50;94593.00;;;;5060445;28;20200;-65
2023/01/18 13:00:57;;;;;;;3.17;1.57;;;5.70;99.90;7.50;94593.00;;;;5061090;28;20220;-64
2023/01/18 13:03:49;;;;;;;1.73;1.50;;;5.90;99.90;7.00;94576.00;;;;5058695;28;20219;-64
2023/01/18 13:06:41;;;;;;;1.23;1.07;;;5.90;99.90;6.90;94584.00;;;;5060605;28;20575;-64
2023/01/18 13:09:39;;;;;;;2.73;1.63;;;5.90;99.90;6.50;94578.00;;;;5059615;28;20567;-64
2023/01/18 13:12:28;;;;;;;1.90;1.43;;;5.70;99.90;6.70;94576.00;;;;5055185;28;20289;-63
2023/01/18 13:15:29;;;;;;;1.00;0.80;;;5.60;99.90;6.70;94565.00;;;;5066869;28;20241;-64
2023/01/18 13:18:24;;;;;;;1.43;1.13;;;5.50;99.90;6.50;94567.00;;;;5066054;28;20659;-64
2023/01/18 13:21:20;;;;;;;1.33;1.07;;;5.40;99.90;6.30;94562.00;;;;5066723;28;20242;-64
2023/01/18 13:24:22;;;;;;;2.40;1.60;;;5.30;99.90;6.60;94582.00;;;;5059259;28;20256;-64
2023/01/18 13:27:14;;;;;;;2.00;1.80;;;5.30;99.90;6.90;94602.00;;;;5064612;28;20231;-64
2023/01/18 13:30:15;;;;;;;1.10;0.97;;;5.30;99.90;6.70;94614.00;;;;5064335;28;20215;-64
2023/01/18 13:33:13;;;;;;;5.03;2.63;;;5.30;99.90;6.30;94625.00;;;;5062815;28;20199;-64
2023/01/18 13:36:07;;;;;;;2.00;1.73;;;5.30;99.90;6.30;94634.00;;;;5059611;28;20225;-64
2023/01/18 13:39:00;;;;;;;1.40;1.30;;;5.20;99.90;6.30;94651.00;;;;5041205;28;20209;-64